sensor_id;sensor_type;location;lat;lon;timestamp;temperature;humidity
8792;DHT22;4432;50.890;4.744;2023-08-06T00:00:25;15.00;99.90
8792;DHT22;4432;50.890;4.744;2023-08-06T00:02:51;15.00;99.90
8792;DHT22;4432;50.890;4.744;2023-08-06T00:05:17;15.00;99.90
8792;DHT22;4432;50.890;4.744;2023-08-06T00:07:49;14.90;99.90
8792;DHT22;4432;50.890;4.744;2023-08-06T00:10:15;15.00;99.90
8792;DHT22;4432;50.890;4.744;2023-08-06T00:12:41;15.00;99.90
8792;DHT22;4432;50.890;4.744;2023-08-06T00:15:07;15.00;99.90
8792;DHT22;4432;50.890;4.744;2023-08-06T00:17:34;15.00;99.90
8792;DHT22;4432;50.890;4.744;2023-08-06T00:20:00;15.00;99.90
8792;DHT22;4432;50.890;4.744;2023-08-06T00:22:33;15.00;99.90
8792;DHT22;4432;50.890;4.744;2023-08-06T00:25:00;15.00;99.90
8792;DHT22;4432;50.890;4.744;2023-08-06T00:27:26;15.00;99.90
8792;DHT22;4432;50.890;4.744;2023-08-06T00:29:52;15.00;99.90
8792;DHT22;4432;50.890;4.744;2023-08-06T00:32:18;15.10;99.90
8792;DHT22;4432;50.890;4.744;2023-08-06T00:34:44;15.00;99.90
8792;DHT22;4432;50.890;4.744;2023-08-06T00:37:10;15.10;99.90
8792;DHT22;4432;50.890;4.744;2023-08-06T00:39:35;15.10;99.90
8792;DHT22;4432;50.890;4.744;2023-08-06T00:42:01;15.00;99.90
8792;DHT22;4432;50.890;4.744;2023-08-06T00:44:27;15.10;99.90
8792;DHT22;4432;50.890;4.744;2023-08-06T00:46:53;15.10;99.90
8792;DHT22;4432;50.890;4.744;2023-08-06T00:49:19;15.10;99.90
8792;DHT22;4432;50.890;4.744;2023-08-06T00:51:44;15.10;99.90
8792;DHT22;4432;50.890;4.744;2023-08-06T00:54:10;15.10;99.90
8792;DHT22;4432;50.890;4.744;2023-08-06T00:56:37;15.10;99.90
8792;DHT22;4432;50.890;4.744;2023-08-06T00:59:06;15.20;99.90
8792;DHT22;4432;50.890;4.744;2023-08-06T01:01:31;15.20;99.90
8792;DHT22;4432;50.890;4.744;2023-08-06T01:03:57;15.20;99.90
8792;DHT22;4432;50.890;4.744;2023-08-06T01:06:48;15.20;99.90
8792;DHT22;4432;50.890;4.744;2023-08-06T01:12:48;15.20;99.90
8792;DHT22;4432;50.890;4.744;2023-08-06T01:15:33;15.20;99.90
8792;DHT22;4432;50.890;4.744;2023-08-06T01:18:01;15.20;99.90
8792;DHT22;4432;50.890;4.744;2023-08-06T01:20:30;15.20;99.90
8792;DHT22;4432;50.890;4.744;2023-08-06T01:22:56;15.20;99.90
8792;DHT22;4432;50.890;4.744;2023-08-06T01:28:33;15.10;99.90
8792;DHT22;4432;50.890;4.744;2023-08-06T01:31:08;15.20;99.90
8792;DHT22;4432;50.890;4.744;2023-08-06T01:33:36;15.20;99.90
8792;DHT22;4432;50.890;4.744;2023-08-06T01:36:04;15.20;99.90
8792;DHT22;4432;50.890;4.744;2023-08-06T01:38:31;15.20;99.90
8792;DHT22;4432;50.890;4.744;2023-08-06T01:40:57;15.20;99.90
8792;DHT22;4432;50.890;4.744;2023-08-06T01:43:23;15.20;99.90
8792;DHT22;4432;50.890;4.744;2023-08-06T01:45:48;15.20;99.90
8792;DHT22;4432;50.890;4.744;2023-08-06T01:48:14;15.30;99.90
8792;DHT22;4432;50.890;4.744;2023-08-06T01:50:40;15.30;99.90
8792;DHT22;4432;50.890;4.744;2023-08-06T01:53:06;15.20;99.90
8792;DHT22;4432;50.890;4.744;2023-08-06T01:55:31;15.30;99.90
8792;DHT22;4432;50.890;4.744;2023-08-06T01:57:57;15.30;99.90
8792;DHT22;4432;50.890;4.744;2023-08-06T02:00:23;15.30;99.90
8792;DHT22;4432;50.890;4.744;2023-08-06T02:02:49;15.30;99.90
8792;DHT22;4432;50.890;4.744;2023-08-06T02:05:14;15.30;99.90
8792;DHT22;4432;50.890;4.744;2023-08-06T02:07:40;15.40;99.90
8792;DHT22;4432;50.890;4.744;2023-08-06T02:10:07;15.30;99.90
8792;DHT22;4432;50.890;4.744;2023-08-06T02:12:33;15.40;99.90
8792;DHT22;4432;50.890;4.744;2023-08-06T02:14:59;15.40;99.90
8792;DHT22;4432;50.890;4.744;2023-08-06T02:17:24;15.40;99.90
8792;DHT22;4432;50.890;4.744;2023-08-06T02:19:50;15.40;99.90
8792;DHT22;4432;50.890;4.744;2023-08-06T02:22:16;15.40;99.90
8792;DHT22;4432;50.890;4.744;2023-08-06T02:24:41;15.40;99.90
8792;DHT22;4432;50.890;4.744;2023-08-06T02:27:07;15.40;99.90
8792;DHT22;4432;50.890;4.744;2023-08-06T02:29:33;15.40;99.90
8792;DHT22;4432;50.890;4.744;2023-08-06T02:31:59;15.40;99.90
8792;DHT22;4432;50.890;4.744;2023-08-06T02:34:27;15.40;99.90
8792;DHT22;4432;50.890;4.744;2023-08-06T02:36:52;15.40;99.90
8792;DHT22;4432;50.890;4.744;2023-08-06T02:39:19;15.40;99.90
8792;DHT22;4432;50.890;4.744;2023-08-06T02:41:44;15.40;99.90
8792;DHT22;4432;50.890;4.744;2023-08-06T02:44:10;15.40;99.90
8792;DHT22;4432;50.890;4.744;2023-08-06T02:46:36;15.40;99.90
8792;DHT22;4432;50.890;4.744;2023-08-06T02:49:02;15.30;99.90
8792;DHT22;4432;50.890;4.744;2023-08-06T02:51:27;15.30;99.90
8792;DHT22;4432;50.890;4.744;2023-08-06T02:53:53;15.30;99.90
8792;DHT22;4432;50.890;4.744;2023-08-06T02:56:19;15.30;99.90
8792;DHT22;4432;50.890;4.744;2023-08-06T02:58:45;15.30;99.90
8792;DHT22;4432;50.890;4.744;2023-08-06T03:01:10;15.30;99.90
8792;DHT22;4432;50.890;4.744;2023-08-06T03:03:36;15.30;99.90
8792;DHT22;4432;50.890;4.744;2023-08-06T03:06:02;15.30;99.90
8792;DHT22;4432;50.890;4.744;2023-08-06T03:08:28;15.30;99.90
8792;DHT22;4432;50.890;4.744;2023-08-06T03:10:54;15.20;99.90
8792;DHT22;4432;50.890;4.744;2023-08-06T03:13:20;15.20;99.90
8792;DHT22;4432;50.890;4.744;2023-08-06T03:15:56;15.20;99.90
8792;DHT22;4432;50.890;4.744;2023-08-06T03:18:22;15.20;99.90
8792;DHT22;4432;50.890;4.744;2023-08-06T03:20:49;15.20;99.90
8792;DHT22;4432;50.890;4.744;2023-08-06T03:23:15;15.20;99.90
8792;DHT22;4432;50.890;4.744;2023-08-06T03:25:41;15.30;99.90
8792;DHT22;4432;50.890;4.744;2023-08-06T03:28:06;15.30;99.90
8792;DHT22;4432;50.890;4.744;2023-08-06T03:30:32;15.30;99.90
8792;DHT22;4432;50.890;4.744;2023-08-06T03:32:58;15.30;99.90
8792;DHT22;4432;50.890;4.744;2023-08-06T03:35:24;15.30;99.90
8792;DHT22;4432;50.890;4.744;2023-08-06T03:37:49;15.30;99.90
8792;DHT22;4432;50.890;4.744;2023-08-06T03:40:15;15.20;99.90
8792;DHT22;4432;50.890;4.744;2023-08-06T03:42:41;15.20;99.90
8792;DHT22;4432;50.890;4.744;2023-08-06T03:45:07;15.20;99.90
8792;DHT22;4432;50.890;4.744;2023-08-06T03:47:33;15.20;99.90
8792;DHT22;4432;50.890;4.744;2023-08-06T03:49:59;15.30;99.90
8792;DHT22;4432;50.890;4.744;2023-08-06T03:52:24;15.20;99.90
8792;DHT22;4432;50.890;4.744;2023-08-06T03:54:50;15.20;99.90
8792;DHT22;4432;50.890;4.744;2023-08-06T03:57:16;15.30;99.90
8792;DHT22;4432;50.890;4.744;2023-08-06T03:59:42;15.20;99.90
8792;DHT22;4432;50.890;4.744;2023-08-06T04:02:08;15.20;99.90
8792;DHT22;4432;50.890;4.744;2023-08-06T04:04:34;15.30;99.90
8792;DHT22;4432;50.890;4.744;2023-08-06T04:06:59;15.30;99.90
8792;DHT22;4432;50.890;4.744;2023-08-06T04:09:28;15.30;99.90
8792;DHT22;4432;50.890;4.744;2023-08-06T04:11:54;15.30;99.90
8792;DHT22;4432;50.890;4.744;2023-08-06T04:14:20;15.30;99.90
8792;DHT22;4432;50.890;4.744;2023-08-06T04:16:46;15.30;99.90
8792;DHT22;4432;50.890;4.744;2023-08-06T04:19:11;15.40;99.90
8792;DHT22;4432;50.890;4.744;2023-08-06T04:21:37;15.40;99.90
8792;DHT22;4432;50.890;4.744;2023-08-06T04:24:03;15.40;99.90
8792;DHT22;4432;50.890;4.744;2023-08-06T04:26:29;15.40;99.90
8792;DHT22;4432;50.890;4.744;2023-08-06T04:28:55;15.40;99.90
8792;DHT22;4432;50.890;4.744;2023-08-06T04:31:21;15.40;99.90
8792;DHT22;4432;50.890;4.744;2023-08-06T04:33:47;15.40;99.90
8792;DHT22;4432;50.890;4.744;2023-08-06T04:36:13;15.40;99.90
8792;DHT22;4432;50.890;4.744;2023-08-06T04:38:39;15.50;99.90
8792;DHT22;4432;50.890;4.744;2023-08-06T04:41:06;15.50;99.90
8792;DHT22;4432;50.890;4.744;2023-08-06T04:43:32;15.50;99.90
8792;DHT22;4432;50.890;4.744;2023-08-06T04:45:58;15.50;99.90
8792;DHT22;4432;50.890;4.744;2023-08-06T04:48:24;15.50;99.90
8792;DHT22;4432;50.890;4.744;2023-08-06T04:50:50;15.50;99.90
8792;DHT22;4432;50.890;4.744;2023-08-06T04:53:16;15.50;99.90
8792;DHT22;4432;50.890;4.744;2023-08-06T04:55:42;15.50;99.90
8792;DHT22;4432;50.890;4.744;2023-08-06T04:58:09;15.40;99.90
8792;DHT22;4432;50.890;4.744;2023-08-06T05:00:35;15.30;99.90
8792;DHT22;4432;50.890;4.744;2023-08-06T05:03:01;15.20;99.90
8792;DHT22;4432;50.890;4.744;2023-08-06T05:05:28;15.30;99.90
8792;DHT22;4432;50.890;4.744;2023-08-06T05:07:55;15.10;99.90
8792;DHT22;4432;50.890;4.744;2023-08-06T05:10:23;15.00;99.90
8792;DHT22;4432;50.890;4.744;2023-08-06T05:12:49;14.90;99.90
8792;DHT22;4432;50.890;4.744;2023-08-06T05:15:15;14.90;99.90
8792;DHT22;4432;50.890;4.744;2023-08-06T05:17:41;14.90;99.90
8792;DHT22;4432;50.890;4.744;2023-08-06T05:20:07;14.80;99.90
8792;DHT22;4432;50.890;4.744;2023-08-06T05:22:33;14.70;99.90
8792;DHT22;4432;50.890;4.744;2023-08-06T05:24:58;14.60;99.90
8792;DHT22;4432;50.890;4.744;2023-08-06T05:27:24;14.50;99.90
8792;DHT22;4432;50.890;4.744;2023-08-06T05:29:50;14.40;99.90
8792;DHT22;4432;50.890;4.744;2023-08-06T05:32:15;14.40;99.90
8792;DHT22;4432;50.890;4.744;2023-08-06T05:34:41;14.40;99.90
8792;DHT22;4432;50.890;4.744;2023-08-06T05:37:07;14.40;99.90
8792;DHT22;4432;50.890;4.744;2023-08-06T05:39:33;14.30;99.90
8792;DHT22;4432;50.890;4.744;2023-08-06T05:41:58;14.40;99.90
8792;DHT22;4432;50.890;4.744;2023-08-06T05:44:24;14.30;99.90
8792;DHT22;4432;50.890;4.744;2023-08-06T05:46:50;14.40;99.90
8792;DHT22;4432;50.890;4.744;2023-08-06T05:49:16;14.40;99.90
8792;DHT22;4432;50.890;4.744;2023-08-06T05:51:41;14.40;99.90
8792;DHT22;4432;50.890;4.744;2023-08-06T05:54:07;14.50;99.90
8792;DHT22;4432;50.890;4.744;2023-08-06T05:56:33;14.50;99.90
8792;DHT22;4432;50.890;4.744;2023-08-06T05:58:59;14.50;99.90
8792;DHT22;4432;50.890;4.744;2023-08-06T06:01:24;14.50;99.90
8792;DHT22;4432;50.890;4.744;2023-08-06T06:03:51;14.50;99.90
8792;DHT22;4432;50.890;4.744;2023-08-06T06:06:16;14.40;99.90
8792;DHT22;4432;50.890;4.744;2023-08-06T06:08:44;14.40;99.90
8792;DHT22;4432;50.890;4.744;2023-08-06T06:11:10;14.40;99.90
8792;DHT22;4432;50.890;4.744;2023-08-06T06:13:36;14.40;99.90
8792;DHT22;4432;50.890;4.744;2023-08-06T06:16:01;14.40;99.90
8792;DHT22;4432;50.890;4.744;2023-08-06T06:18:27;14.40;99.90
8792;DHT22;4432;50.890;4.744;2023-08-06T06:20:53;14.40;99.90
8792;DHT22;4432;50.890;4.744;2023-08-06T06:23:18;14.40;99.90
8792;DHT22;4432;50.890;4.744;2023-08-06T06:25:48;14.50;99.90
8792;DHT22;4432;50.890;4.744;2023-08-06T06:28:14;14.50;99.90
8792;DHT22;4432;50.890;4.744;2023-08-06T06:30:42;14.60;99.90
8792;DHT22;4432;50.890;4.744;2023-08-06T06:33:07;14.50;99.90
8792;DHT22;4432;50.890;4.744;2023-08-06T06:35:33;14.50;99.90
8792;DHT22;4432;50.890;4.744;2023-08-06T06:37:59;14.50;99.90
8792;DHT22;4432;50.890;4.744;2023-08-06T06:40:27;14.50;99.90
8792;DHT22;4432;50.890;4.744;2023-08-06T06:42:54;14.60;99.90
8792;DHT22;4432;50.890;4.744;2023-08-06T06:45:20;14.50;99.90
8792;DHT22;4432;50.890;4.744;2023-08-06T06:47:45;14.50;99.90
8792;DHT22;4432;50.890;4.744;2023-08-06T06:50:11;14.50;99.90
8792;DHT22;4432;50.890;4.744;2023-08-06T06:52:37;14.50;99.90
8792;DHT22;4432;50.890;4.744;2023-08-06T06:55:03;14.50;99.90
8792;DHT22;4432;50.890;4.744;2023-08-06T06:57:29;14.50;99.90
8792;DHT22;4432;50.890;4.744;2023-08-06T06:59:55;14.60;99.90
8792;DHT22;4432;50.890;4.744;2023-08-06T07:02:20;14.60;99.90
8792;DHT22;4432;50.890;4.744;2023-08-06T07:04:46;14.70;99.90
8792;DHT22;4432;50.890;4.744;2023-08-06T07:07:12;14.70;99.90
8792;DHT22;4432;50.890;4.744;2023-08-06T07:09:38;14.80;99.90
8792;DHT22;4432;50.890;4.744;2023-08-06T07:12:04;14.80;99.90
8792;DHT22;4432;50.890;4.744;2023-08-06T07:14:30;14.80;99.90
8792;DHT22;4432;50.890;4.744;2023-08-06T07:16:55;14.80;99.90
8792;DHT22;4432;50.890;4.744;2023-08-06T07:19:21;14.80;99.90
8792;DHT22;4432;50.890;4.744;2023-08-06T07:21:47;14.80;99.90
8792;DHT22;4432;50.890;4.744;2023-08-06T07:24:13;14.90;99.90
8792;DHT22;4432;50.890;4.744;2023-08-06T07:26:38;14.90;99.90
8792;DHT22;4432;50.890;4.744;2023-08-06T07:29:04;14.90;99.90
8792;DHT22;4432;50.890;4.744;2023-08-06T07:31:30;14.90;99.90
8792;DHT22;4432;50.890;4.744;2023-08-06T07:33:55;14.90;99.90
8792;DHT22;4432;50.890;4.744;2023-08-06T07:36:21;14.90;99.90
8792;DHT22;4432;50.890;4.744;2023-08-06T07:38:47;14.90;99.90
8792;DHT22;4432;50.890;4.744;2023-08-06T07:41:17;14.90;99.90
8792;DHT22;4432;50.890;4.744;2023-08-06T07:43:42;15.00;99.90
8792;DHT22;4432;50.890;4.744;2023-08-06T07:46:08;15.10;99.90
8792;DHT22;4432;50.890;4.744;2023-08-06T07:48:34;15.10;99.90
8792;DHT22;4432;50.890;4.744;2023-08-06T07:51:00;15.10;99.90
8792;DHT22;4432;50.890;4.744;2023-08-06T07:53:26;15.10;99.90
8792;DHT22;4432;50.890;4.744;2023-08-06T07:55:58;15.20;99.90
8792;DHT22;4432;50.890;4.744;2023-08-06T07:58:25;15.30;99.90
8792;DHT22;4432;50.890;4.744;2023-08-06T08:00:51;15.20;99.90
8792;DHT22;4432;50.890;4.744;2023-08-06T08:03:17;15.10;99.90
8792;DHT22;4432;50.890;4.744;2023-08-06T08:05:43;15.00;99.90
8792;DHT22;4432;50.890;4.744;2023-08-06T08:08:09;15.00;99.90
8792;DHT22;4432;50.890;4.744;2023-08-06T08:10:35;15.10;99.90
8792;DHT22;4432;50.890;4.744;2023-08-06T08:13:02;15.20;99.90
8792;DHT22;4432;50.890;4.744;2023-08-06T08:15:29;15.20;99.90
8792;DHT22;4432;50.890;4.744;2023-08-06T08:17:55;15.20;99.90
8792;DHT22;4432;50.890;4.744;2023-08-06T08:20:21;15.30;99.90
8792;DHT22;4432;50.890;4.744;2023-08-06T08:22:47;15.40;99.90
8792;DHT22;4432;50.890;4.744;2023-08-06T08:25:13;15.40;99.90
8792;DHT22;4432;50.890;4.744;2023-08-06T08:27:39;15.40;99.90
8792;DHT22;4432;50.890;4.744;2023-08-06T08:30:05;15.50;99.90
8792;DHT22;4432;50.890;4.744;2023-08-06T08:32:31;15.60;99.90
8792;DHT22;4432;50.890;4.744;2023-08-06T08:34:57;15.70;99.90
8792;DHT22;4432;50.890;4.744;2023-08-06T08:37:23;15.80;99.90
8792;DHT22;4432;50.890;4.744;2023-08-06T08:39:49;16.00;99.90
8792;DHT22;4432;50.890;4.744;2023-08-06T08:42:16;16.10;99.90
8792;DHT22;4432;50.890;4.744;2023-08-06T08:44:42;15.90;99.90
8792;DHT22;4432;50.890;4.744;2023-08-06T08:47:10;15.80;99.90
8792;DHT22;4432;50.890;4.744;2023-08-06T08:49:37;15.90;99.90
8792;DHT22;4432;50.890;4.744;2023-08-06T08:52:04;15.90;99.90
8792;DHT22;4432;50.890;4.744;2023-08-06T08:54:33;15.80;99.90
8792;DHT22;4432;50.890;4.744;2023-08-06T08:56:59;15.80;99.90
8792;DHT22;4432;50.890;4.744;2023-08-06T08:59:26;15.80;99.90
8792;DHT22;4432;50.890;4.744;2023-08-06T09:01:52;15.70;99.90
8792;DHT22;4432;50.890;4.744;2023-08-06T09:04:19;15.50;99.90
8792;DHT22;4432;50.890;4.744;2023-08-06T09:06:56;15.50;99.90
8792;DHT22;4432;50.890;4.744;2023-08-06T09:09:31;15.50;99.90
8792;DHT22;4432;50.890;4.744;2023-08-06T09:12:01;15.50;99.90
8792;DHT22;4432;50.890;4.744;2023-08-06T09:14:28;15.50;99.90
8792;DHT22;4432;50.890;4.744;2023-08-06T09:16:54;15.40;99.90
8792;DHT22;4432;50.890;4.744;2023-08-06T09:19:20;15.50;99.90
8792;DHT22;4432;50.890;4.744;2023-08-06T09:21:46;15.50;99.90
8792;DHT22;4432;50.890;4.744;2023-08-06T09:24:15;15.60;99.90
8792;DHT22;4432;50.890;4.744;2023-08-06T09:26:43;15.40;99.90
8792;DHT22;4432;50.890;4.744;2023-08-06T09:29:09;15.40;99.90
8792;DHT22;4432;50.890;4.744;2023-08-06T09:31:48;15.40;99.90
8792;DHT22;4432;50.890;4.744;2023-08-06T09:34:19;15.20;99.90
8792;DHT22;4432;50.890;4.744;2023-08-06T09:36:55;15.20;99.90
8792;DHT22;4432;50.890;4.744;2023-08-06T09:39:29;15.20;99.90
8792;DHT22;4432;50.890;4.744;2023-08-06T09:41:59;15.20;99.90
8792;DHT22;4432;50.890;4.744;2023-08-06T09:44:28;15.20;99.90
8792;DHT22;4432;50.890;4.744;2023-08-06T09:47:03;15.30;99.90
8792;DHT22;4432;50.890;4.744;2023-08-06T09:49:41;15.40;99.90
8792;DHT22;4432;50.890;4.744;2023-08-06T09:52:12;15.40;99.90
8792;DHT22;4432;50.890;4.744;2023-08-06T09:54:39;15.50;99.90
8792;DHT22;4432;50.890;4.744;2023-08-06T09:57:05;15.60;99.90
8792;DHT22;4432;50.890;4.744;2023-08-06T09:59:32;15.60;99.90
8792;DHT22;4432;50.890;4.744;2023-08-06T10:01:58;15.70;99.90
8792;DHT22;4432;50.890;4.744;2023-08-06T10:04:25;15.60;99.90
8792;DHT22;4432;50.890;4.744;2023-08-06T10:06:52;15.30;99.90
8792;DHT22;4432;50.890;4.744;2023-08-06T10:09:19;15.40;99.90
8792;DHT22;4432;50.890;4.744;2023-08-06T10:11:51;15.30;99.90
8792;DHT22;4432;50.890;4.744;2023-08-06T10:14:27;15.30;99.90
8792;DHT22;4432;50.890;4.744;2023-08-06T10:16:57;15.20;99.90
8792;DHT22;4432;50.890;4.744;2023-08-06T10:19:24;15.10;99.90
8792;DHT22;4432;50.890;4.744;2023-08-06T10:22:10;15.10;99.90
8792;DHT22;4432;50.890;4.744;2023-08-06T10:24:56;15.00;99.90
8792;DHT22;4432;50.890;4.744;2023-08-06T10:30:22;14.80;99.90
8792;DHT22;4432;50.890;4.744;2023-08-06T10:32:50;14.80;99.90
8792;DHT22;4432;50.890;4.744;2023-08-06T10:38:14;14.80;99.90
8792;DHT22;4432;50.890;4.744;2023-08-06T10:40:42;14.80;99.90
8792;DHT22;4432;50.890;4.744;2023-08-06T10:43:08;14.80;99.90
8792;DHT22;4432;50.890;4.744;2023-08-06T10:45:50;14.70;99.90
8792;DHT22;4432;50.890;4.744;2023-08-06T10:48:33;14.70;99.90
8792;DHT22;4432;50.890;4.744;2023-08-06T10:51:01;14.80;99.90
8792;DHT22;4432;50.890;4.744;2023-08-06T10:53:27;14.70;99.90
8792;DHT22;4432;50.890;4.744;2023-08-06T10:55:53;14.70;99.90
8792;DHT22;4432;50.890;4.744;2023-08-06T10:58:19;14.70;99.90
8792;DHT22;4432;50.890;4.744;2023-08-06T11:00:45;14.80;99.90
8792;DHT22;4432;50.890;4.744;2023-08-06T11:03:11;14.70;99.90
8792;DHT22;4432;50.890;4.744;2023-08-06T11:05:37;14.70;99.90
8792;DHT22;4432;50.890;4.744;2023-08-06T11:08:03;14.60;99.90
8792;DHT22;4432;50.890;4.744;2023-08-06T11:10:28;14.70;99.90
8792;DHT22;4432;50.890;4.744;2023-08-06T11:12:54;14.80;99.90
8792;DHT22;4432;50.890;4.744;2023-08-06T11:15:21;14.80;99.90
8792;DHT22;4432;50.890;4.744;2023-08-06T11:17:47;14.80;99.90
8792;DHT22;4432;50.890;4.744;2023-08-06T11:20:13;14.80;99.90
8792;DHT22;4432;50.890;4.744;2023-08-06T11:22:39;14.80;99.90
8792;DHT22;4432;50.890;4.744;2023-08-06T11:25:06;14.80;99.90
8792;DHT22;4432;50.890;4.744;2023-08-06T11:27:32;14.60;99.90
8792;DHT22;4432;50.890;4.744;2023-08-06T11:29:58;14.60;99.90
8792;DHT22;4432;50.890;4.744;2023-08-06T11:32:24;14.50;99.90
8792;DHT22;4432;50.890;4.744;2023-08-06T11:34:50;14.60;99.90
8792;DHT22;4432;50.890;4.744;2023-08-06T11:37:16;14.60;99.90
8792;DHT22;4432;50.890;4.744;2023-08-06T11:39:47;14.70;99.90
8792;DHT22;4432;50.890;4.744;2023-08-06T11:42:15;14.70;99.90
8792;DHT22;4432;50.890;4.744;2023-08-06T11:44:42;14.70;99.90
8792;DHT22;4432;50.890;4.744;2023-08-06T11:47:16;14.70;99.90
8792;DHT22;4432;50.890;4.744;2023-08-06T11:49:47;14.60;99.90
8792;DHT22;4432;50.890;4.744;2023-08-06T11:52:21;14.70;99.90
8792;DHT22;4432;50.890;4.744;2023-08-06T11:55:08;14.70;99.90
8792;DHT22;4432;50.890;4.744;2023-08-06T11:57:44;14.60;99.90
8792;DHT22;4432;50.890;4.744;2023-08-06T12:00:12;14.50;99.90
8792;DHT22;4432;50.890;4.744;2023-08-06T12:02:43;14.40;99.90
8792;DHT22;4432;50.890;4.744;2023-08-06T12:05:16;14.40;99.90
8792;DHT22;4432;50.890;4.744;2023-08-06T12:07:46;14.40;99.90
8792;DHT22;4432;50.890;4.744;2023-08-06T12:10:14;14.40;99.90
8792;DHT22;4432;50.890;4.744;2023-08-06T12:12:39;14.40;99.90
8792;DHT22;4432;50.890;4.744;2023-08-06T12:15:07;14.50;99.90
8792;DHT22;4432;50.890;4.744;2023-08-06T12:17:33;14.70;99.90
8792;DHT22;4432;50.890;4.744;2023-08-06T12:19:59;14.70;99.90
8792;DHT22;4432;50.890;4.744;2023-08-06T12:22:25;14.70;99.90
8792;DHT22;4432;50.890;4.744;2023-08-06T12:24:51;14.80;99.90
8792;DHT22;4432;50.890;4.744;2023-08-06T12:27:17;14.70;99.90
8792;DHT22;4432;50.890;4.744;2023-08-06T12:29:43;14.70;99.90
8792;DHT22;4432;50.890;4.744;2023-08-06T12:32:11;14.80;99.90
8792;DHT22;4432;50.890;4.744;2023-08-06T12:34:38;14.90;99.90
8792;DHT22;4432;50.890;4.744;2023-08-06T12:37:05;14.90;99.90
8792;DHT22;4432;50.890;4.744;2023-08-06T12:39:31;14.80;99.90
8792;DHT22;4432;50.890;4.744;2023-08-06T12:42:07;14.80;99.90
8792;DHT22;4432;50.890;4.744;2023-08-06T12:44:33;14.80;99.90
8792;DHT22;4432;50.890;4.744;2023-08-06T12:46:59;14.80;99.90
8792;DHT22;4432;50.890;4.744;2023-08-06T12:49:25;14.90;99.90
8792;DHT22;4432;50.890;4.744;2023-08-06T12:51:52;15.00;99.90
8792;DHT22;4432;50.890;4.744;2023-08-06T12:54:19;14.90;99.90
8792;DHT22;4432;50.890;4.744;2023-08-06T12:56:46;14.90;99.90
8792;DHT22;4432;50.890;4.744;2023-08-06T12:59:14;15.00;99.90
8792;DHT22;4432;50.890;4.744;2023-08-06T13:01:40;14.90;99.90
8792;DHT22;4432;50.890;4.744;2023-08-06T13:04:06;14.90;99.90
8792;DHT22;4432;50.890;4.744;2023-08-06T13:06:32;14.90;99.90
8792;DHT22;4432;50.890;4.744;2023-08-06T13:09:09;14.90;99.90
8792;DHT22;4432;50.890;4.744;2023-08-06T13:11:36;14.90;99.90
8792;DHT22;4432;50.890;4.744;2023-08-06T13:14:11;14.90;99.90
8792;DHT22;4432;50.890;4.744;2023-08-06T13:16:40;14.90;99.90
8792;DHT22;4432;50.890;4.744;2023-08-06T13:19:07;14.80;99.90
8792;DHT22;4432;50.890;4.744;2023-08-06T13:24:03;14.70;99.90
8792;DHT22;4432;50.890;4.744;2023-08-06T13:26:32;14.60;99.90
8792;DHT22;4432;50.890;4.744;2023-08-06T13:28:58;14.60;99.90
8792;DHT22;4432;50.890;4.744;2023-08-06T13:31:25;14.80;99.90
8792;DHT22;4432;50.890;4.744;2023-08-06T13:33:51;14.80;99.90
8792;DHT22;4432;50.890;4.744;2023-08-06T13:36:17;14.80;99.90
8792;DHT22;4432;50.890;4.744;2023-08-06T13:38:43;14.80;99.90
8792;DHT22;4432;50.890;4.744;2023-08-06T13:41:09;14.90;99.90
8792;DHT22;4432;50.890;4.744;2023-08-06T13:43:34;15.00;99.90
8792;DHT22;4432;50.890;4.744;2023-08-06T13:46:00;14.90;99.90
8792;DHT22;4432;50.890;4.744;2023-08-06T13:48:26;14.90;99.90
8792;DHT22;4432;50.890;4.744;2023-08-06T13:50:52;14.80;99.90
8792;DHT22;4432;50.890;4.744;2023-08-06T13:53:18;14.80;99.90
8792;DHT22;4432;50.890;4.744;2023-08-06T13:55:43;14.70;99.90
8792;DHT22;4432;50.890;4.744;2023-08-06T13:58:09;14.60;99.90
8792;DHT22;4432;50.890;4.744;2023-08-06T14:00:36;14.40;99.90
8792;DHT22;4432;50.890;4.744;2023-08-06T14:03:02;14.40;99.90
8792;DHT22;4432;50.890;4.744;2023-08-06T14:05:28;14.40;99.90
8792;DHT22;4432;50.890;4.744;2023-08-06T14:07:53;14.30;99.90
8792;DHT22;4432;50.890;4.744;2023-08-06T14:10:19;14.20;99.90
8792;DHT22;4432;50.890;4.744;2023-08-06T14:12:45;14.10;99.90
8792;DHT22;4432;50.890;4.744;2023-08-06T14:15:11;14.10;99.90
8792;DHT22;4432;50.890;4.744;2023-08-06T14:17:37;14.10;99.90
8792;DHT22;4432;50.890;4.744;2023-08-06T14:20:04;14.00;99.90
8792;DHT22;4432;50.890;4.744;2023-08-06T14:22:30;14.00;99.90
8792;DHT22;4432;50.890;4.744;2023-08-06T14:24:58;14.10;99.90
8792;DHT22;4432;50.890;4.744;2023-08-06T14:27:24;14.00;99.90
8792;DHT22;4432;50.890;4.744;2023-08-06T14:29:50;14.00;99.90
8792;DHT22;4432;50.890;4.744;2023-08-06T14:32:15;14.00;99.90
8792;DHT22;4432;50.890;4.744;2023-08-06T14:34:44;14.10;99.90
8792;DHT22;4432;50.890;4.744;2023-08-06T14:37:10;14.10;99.90
8792;DHT22;4432;50.890;4.744;2023-08-06T14:39:36;14.10;99.90
8792;DHT22;4432;50.890;4.744;2023-08-06T14:42:03;14.10;99.90
8792;DHT22;4432;50.890;4.744;2023-08-06T14:44:29;14.10;99.90
8792;DHT22;4432;50.890;4.744;2023-08-06T14:46:54;14.10;99.90
8792;DHT22;4432;50.890;4.744;2023-08-06T14:49:20;14.20;99.90
8792;DHT22;4432;50.890;4.744;2023-08-06T14:51:46;14.30;99.90
8792;DHT22;4432;50.890;4.744;2023-08-06T14:54:12;14.40;99.90
8792;DHT22;4432;50.890;4.744;2023-08-06T14:56:37;14.40;99.90
8792;DHT22;4432;50.890;4.744;2023-08-06T14:59:03;14.50;99.90
8792;DHT22;4432;50.890;4.744;2023-08-06T15:01:29;14.60;99.90
8792;DHT22;4432;50.890;4.744;2023-08-06T15:03:55;14.60;99.90
8792;DHT22;4432;50.890;4.744;2023-08-06T15:06:21;14.80;99.90
8792;DHT22;4432;50.890;4.744;2023-08-06T15:08:46;14.80;99.90
8792;DHT22;4432;50.890;4.744;2023-08-06T15:11:14;14.80;99.90
8792;DHT22;4432;50.890;4.744;2023-08-06T15:13:40;14.80;99.90
8792;DHT22;4432;50.890;4.744;2023-08-06T15:16:06;14.70;99.90
8792;DHT22;4432;50.890;4.744;2023-08-06T15:18:32;14.60;99.90
8792;DHT22;4432;50.890;4.744;2023-08-06T15:20:57;14.50;99.90
8792;DHT22;4432;50.890;4.744;2023-08-06T15:23:24;14.40;99.90
8792;DHT22;4432;50.890;4.744;2023-08-06T15:25:50;14.40;99.90
8792;DHT22;4432;50.890;4.744;2023-08-06T15:28:16;14.40;99.90
8792;DHT22;4432;50.890;4.744;2023-08-06T15:30:51;14.30;99.90
8792;DHT22;4432;50.890;4.744;2023-08-06T15:33:18;14.40;99.90
8792;DHT22;4432;50.890;4.744;2023-08-06T15:35:44;14.50;99.90
8792;DHT22;4432;50.890;4.744;2023-08-06T15:38:10;14.50;99.90
8792;DHT22;4432;50.890;4.744;2023-08-06T15:40:35;14.50;99.90
8792;DHT22;4432;50.890;4.744;2023-08-06T15:43:02;14.60;99.90
8792;DHT22;4432;50.890;4.744;2023-08-06T15:45:28;14.60;99.90
8792;DHT22;4432;50.890;4.744;2023-08-06T15:47:53;14.60;99.90
8792;DHT22;4432;50.890;4.744;2023-08-06T15:50:19;14.70;99.90
8792;DHT22;4432;50.890;4.744;2023-08-06T15:52:45;14.80;99.90
8792;DHT22;4432;50.890;4.744;2023-08-06T15:55:11;14.90;99.90
8792;DHT22;4432;50.890;4.744;2023-08-06T15:57:37;14.80;99.90
8792;DHT22;4432;50.890;4.744;2023-08-06T16:00:04;14.90;99.90
8792;DHT22;4432;50.890;4.744;2023-08-06T16:02:30;14.90;99.90
8792;DHT22;4432;50.890;4.744;2023-08-06T16:04:56;15.00;99.90
8792;DHT22;4432;50.890;4.744;2023-08-06T16:07:23;15.10;99.90
8792;DHT22;4432;50.890;4.744;2023-08-06T16:09:49;15.10;99.90
8792;DHT22;4432;50.890;4.744;2023-08-06T16:12:17;15.10;99.90
8792;DHT22;4432;50.890;4.744;2023-08-06T16:14:45;15.00;99.90